createdAt,value
2023-02-04T00:00:05.698Z,95486.19
2023-02-04T00:02:32.766Z,95475.63
2023-02-04T00:04:59.517Z,95491.78
2023-02-04T00:07:26.448Z,95482.88
2023-02-04T00:09:53.184Z,95458.28
2023-02-04T00:12:19.983Z,95438.44
2023-02-04T00:14:46.694Z,95429.72
2023-02-04T00:17:13.433Z,95431.63
2023-02-04T00:19:41.319Z,95423.69
2023-02-04T00:22:09.332Z,95419.66
2023-02-04T00:24:37.008Z,95460.44
2023-02-04T00:27:05.609Z,95448.09
2023-02-04T00:29:32.623Z,95442.72
2023-02-04T00:31:59.624Z,95438.97
2023-02-04T00:34:27.525Z,95433.28
2023-02-04T00:36:54.468Z,95484.50
2023-02-04T00:39:21.308Z,95485.19
2023-02-04T00:41:48.319Z,95504.59
2023-02-04T00:44:15.147Z,95518.53
2023-02-04T00:46:42.837Z,95510.88
2023-02-04T00:49:10.983Z,95497.19
2023-02-04T00:51:39.606Z,95514.25
2023-02-04T00:54:07.608Z,95522.44
2023-02-04T00:56:34.804Z,95514.19
2023-02-04T00:59:02.795Z,95514.25
2023-02-04T01:01:30.000Z,95504.22
2023-02-04T01:03:56.860Z,95510.75
2023-02-04T01:06:23.917Z,95521.09
2023-02-04T01:08:51.122Z,95526.31
2023-02-04T01:11:18.419Z,95529.00
2023-02-04T01:13:45.339Z,95513.75
2023-02-04T01:16:13.136Z,95516.50
2023-02-04T01:18:40.097Z,95525.63
2023-02-04T01:21:07.239Z,95535.84
2023-02-04T01:23:34.020Z,95521.34
2023-02-04T01:26:01.167Z,95560.38
2023-02-04T01:28:28.577Z,95535.59
2023-02-04T01:30:55.759Z,95561.97
2023-02-04T01:33:22.928Z,95552.84
2023-02-04T01:35:50.548Z,95556.75
2023-02-04T01:38:17.318Z,95584.69
2023-02-04T01:40:44.187Z,95575.22
2023-02-04T01:43:12.442Z,95593.97
2023-02-04T01:45:39.750Z,95600.69
2023-02-04T01:48:07.634Z,95617.84
2023-02-04T01:50:35.135Z,95627.91
2023-02-04T01:53:02.447Z,95606.06
2023-02-04T01:55:32.279Z,95599.84
2023-02-04T01:58:00.025Z,95605.59
2023-02-04T02:00:31.057Z,95567.50
2023-02-04T02:02:59.826Z,95576.88
2023-02-04T02:05:41.569Z,95584.34
2023-02-04T02:08:10.636Z,95596.41
2023-02-04T02:10:41.353Z,95584.03
2023-02-04T02:13:11.103Z,95586.97
2023-02-04T02:15:39.442Z,95587.19
2023-02-04T02:18:07.312Z,95573.97
2023-02-04T02:20:35.387Z,95619.50
2023-02-04T02:23:05.033Z,95610.44
2023-02-04T02:25:32.649Z,95625.38
2023-02-04T02:28:00.790Z,95593.38
2023-02-04T02:30:29.718Z,95609.59
2023-02-04T02:32:57.824Z,95619.22
2023-02-04T02:35:24.712Z,95593.22
2023-02-04T02:37:53.498Z,95614.53
2023-02-04T02:40:20.511Z,95608.28
2023-02-04T02:42:52.045Z,95640.13
2023-02-04T02:45:26.772Z,95630.94
2023-02-04T02:47:54.685Z,95643.75
2023-02-04T02:50:25.021Z,95652.19
2023-02-04T02:52:53.385Z,95638.81
2023-02-04T02:55:23.891Z,95657.81
2023-02-04T02:57:52.269Z,95667.34
2023-02-04T03:00:24.024Z,95638.91
2023-02-04T03:03:10.050Z,95652.06
2023-02-04T03:05:42.294Z,95620.53
2023-02-04T03:08:12.363Z,95637.63
2023-02-04T03:10:39.374Z,95628.22
2023-02-04T03:13:06.279Z,95650.03
2023-02-04T03:15:33.541Z,95639.56
2023-02-04T03:18:01.061Z,95631.41
2023-02-04T03:20:31.033Z,95624.38
2023-02-04T03:22:59.523Z,95640.19
2023-02-04T03:25:28.375Z,95629.63
2023-02-04T03:27:59.058Z,95632.97
2023-02-04T03:30:27.453Z,95645.78
2023-02-04T03:32:55.193Z,95673.69
2023-02-04T03:35:21.927Z,95684.09
2023-02-04T03:37:48.971Z,95663.16
2023-02-04T03:40:16.442Z,95691.72
2023-02-04T03:42:43.215Z,95687.88
2023-02-04T03:45:10.142Z,95686.72
2023-02-04T03:47:36.839Z,95705.50
2023-02-04T03:50:04.111Z,95721.38
2023-02-04T03:52:30.801Z,95719.13
2023-02-04T03:54:57.782Z,95733.94
2023-02-04T03:57:24.509Z,95733.91
2023-02-04T03:59:51.193Z,95726.00
2023-02-04T04:02:17.968Z,95749.81
2023-02-04T04:04:44.668Z,95764.25
2023-02-04T04:07:11.623Z,95748.91
2023-02-04T04:09:38.333Z,95761.84
2023-02-04T04:12:05.323Z,95750.22
2023-02-04T04:14:32.127Z,95758.25
2023-02-04T04:16:58.812Z,95758.72
2023-02-04T04:19:25.638Z,95762.91
2023-02-04T04:21:52.346Z,95758.69
2023-02-04T04:24:19.075Z,95778.66
2023-02-04T04:26:45.741Z,95792.75
2023-02-04T04:29:12.887Z,95799.91
2023-02-04T04:31:39.897Z,95801.31
2023-02-04T04:34:06.718Z,95808.75
2023-02-04T04:36:33.457Z,95821.81
2023-02-04T04:39:00.402Z,95805.03
2023-02-04T04:41:27.100Z,95821.91
2023-02-04T04:43:54.178Z,95828.03
2023-02-04T04:46:21.164Z,95821.47
2023-02-04T04:48:48.299Z,95823.81
2023-02-04T04:51:14.965Z,95821.88
2023-02-04T04:53:42.157Z,95822.19
2023-02-04T04:56:09.183Z,95829.31
2023-02-04T04:58:35.926Z,95843.41
2023-02-04T05:01:02.751Z,95849.44
2023-02-04T05:03:29.595Z,95843.13
2023-02-04T05:05:56.437Z,95840.63
2023-02-04T05:08:23.882Z,95858.31
2023-02-04T05:10:50.977Z,95865.88
2023-02-04T05:13:17.681Z,95864.56
2023-02-04T05:15:44.381Z,95853.91
2023-02-04T05:18:11.067Z,95826.31
2023-02-04T05:20:37.896Z,95843.19
2023-02-04T05:23:05.817Z,95838.84
2023-02-04T05:25:32.868Z,95866.09
2023-02-04T05:27:59.677Z,95869.63
2023-02-04T05:30:26.540Z,95855.72
2023-02-04T05:32:53.741Z,95864.94
2023-02-04T05:35:20.864Z,95882.06
2023-02-04T05:37:47.642Z,95878.34
2023-02-04T05:40:14.466Z,95890.91
2023-02-04T05:42:42.066Z,95910.13
2023-02-04T05:45:19.124Z,95886.72
2023-02-04T05:47:45.896Z,95900.72
2023-02-04T05:50:12.738Z,95919.78
2023-02-04T05:52:40.449Z,95922.56
2023-02-04T05:55:08.445Z,95924.13
2023-02-04T05:57:35.728Z,95927.06
2023-02-04T06:00:02.880Z,95936.97
2023-02-04T06:02:38.992Z,95935.50
2023-02-04T06:05:06.424Z,95962.25
2023-02-04T06:07:33.157Z,95984.13
2023-02-04T06:10:00.573Z,95986.00
2023-02-04T06:12:27.914Z,95972.31
2023-02-04T06:14:55.096Z,95963.91
2023-02-04T06:17:21.831Z,95980.06
2023-02-04T06:19:48.481Z,95985.16
2023-02-04T06:22:15.213Z,95973.00
2023-02-04T06:24:41.906Z,95980.19
2023-02-04T06:27:08.622Z,95991.47
2023-02-04T06:29:36.216Z,95965.31
2023-02-04T06:32:03.066Z,95994.84
2023-02-04T06:34:29.879Z,95966.84
2023-02-04T06:36:56.588Z,95971.94
2023-02-04T06:39:23.456Z,96001.69
2023-02-04T06:41:50.179Z,96004.44
2023-02-04T06:44:16.903Z,96015.25
2023-02-04T06:46:44.117Z,95994.03
2023-02-04T06:49:10.863Z,95981.44
2023-02-04T06:51:37.566Z,95991.63
2023-02-04T06:54:04.535Z,96011.88
2023-02-04T06:56:31.297Z,96008.84
2023-02-04T06:58:58.225Z,96001.19
2023-02-04T07:01:25.026Z,95999.34
2023-02-04T07:03:51.797Z,96038.69
2023-02-04T07:06:18.585Z,96031.81
2023-02-04T07:08:47.031Z,96053.56
2023-02-04T07:11:14.248Z,96058.50
2023-02-04T07:13:41.060Z,96065.34
2023-02-04T07:16:08.523Z,96042.59
2023-02-04T07:18:35.598Z,96055.69
2023-02-04T07:21:02.319Z,96062.28
2023-02-04T07:23:29.486Z,96065.84
2023-02-04T07:25:57.428Z,96072.97
2023-02-04T07:28:24.239Z,96046.97
2023-02-04T07:30:51.745Z,96057.63
2023-02-04T07:33:18.619Z,96065.22
2023-02-04T07:35:45.456Z,96061.59
2023-02-04T07:38:12.180Z,96089.78
2023-02-04T07:40:39.364Z,96087.03
2023-02-04T07:43:06.585Z,96067.00
2023-02-04T07:45:34.295Z,96079.78
2023-02-04T07:48:01.006Z,96084.41
2023-02-04T07:50:27.766Z,96101.25
2023-02-04T07:52:54.449Z,96095.91
2023-02-04T07:55:21.305Z,96090.44
2023-02-04T07:57:48.026Z,96112.09
2023-02-04T08:00:16.361Z,96086.69
2023-02-04T08:02:43.224Z,96099.69
2023-02-04T08:05:11.348Z,96080.59
2023-02-04T08:07:38.122Z,96092.75
2023-02-04T08:10:06.229Z,96118.22
2023-02-04T08:12:33.200Z,96115.56
2023-02-04T08:15:01.470Z,96116.63
2023-02-04T08:17:29.128Z,96111.63
2023-02-04T08:19:56.911Z,96116.91
2023-02-04T08:22:23.684Z,96134.88
2023-02-04T08:24:50.459Z,96128.16
2023-02-04T08:27:17.217Z,96155.41
2023-02-04T08:29:44.564Z,96164.28
2023-02-04T08:32:13.338Z,96153.59
2023-02-04T08:34:40.826Z,96171.97
2023-02-04T08:37:07.772Z,96144.81
2023-02-04T08:39:34.484Z,96151.16
2023-02-04T08:42:01.256Z,96154.63
2023-02-04T08:44:28.002Z,96143.94
2023-02-04T08:46:54.823Z,96159.63
2023-02-04T08:49:21.953Z,96162.16
2023-02-04T08:51:48.728Z,96155.19
2023-02-04T08:54:15.884Z,96166.66
2023-02-04T08:56:42.625Z,96151.69
2023-02-04T08:59:09.436Z,96170.09
2023-02-04T09:01:36.157Z,96174.22
2023-02-04T09:04:03.468Z,96166.63
2023-02-04T09:06:31.031Z,96140.50
2023-02-04T09:08:57.805Z,96176.59
2023-02-04T09:11:24.529Z,96163.91
2023-02-04T09:13:51.269Z,96180.34
2023-02-04T09:16:18.678Z,96213.34
2023-02-04T09:18:46.406Z,96226.06
2023-02-04T09:21:13.113Z,96225.72
2023-02-04T09:23:39.880Z,96219.88
2023-02-04T09:26:06.613Z,96225.63
2023-02-04T09:28:33.694Z,96236.28
2023-02-04T09:31:02.584Z,96229.75
2023-02-04T09:33:31.393Z,96221.72
2023-02-04T09:35:58.231Z,96221.47
2023-02-04T09:38:25.020Z,96226.78
2023-02-04T09:40:56.311Z,96231.19
2023-02-04T09:43:27.667Z,96228.84
2023-02-04T09:45:55.653Z,96217.59
2023-02-04T09:48:24.628Z,96235.38
2023-02-04T09:50:53.486Z,96237.22
2023-02-04T09:53:23.453Z,96253.53
2023-02-04T09:55:52.402Z,96269.94
2023-02-04T09:58:22.308Z,96262.06
2023-02-04T10:01:12.496Z,96261.53
2023-02-04T10:03:46.719Z,96253.38
2023-02-04T10:06:19.672Z,96270.34
2023-02-04T10:08:49.352Z,96201.84
2023-02-04T10:11:19.649Z,96246.28
2023-02-04T10:13:54.147Z,96248.03
2023-02-04T10:16:30.392Z,96242.66
2023-02-04T10:19:03.552Z,96218.09
2023-02-04T10:21:32.418Z,96254.25
2023-02-04T10:24:02.698Z,96239.34
2023-02-04T10:26:31.784Z,96233.34
2023-02-04T10:29:09.781Z,96269.28
2023-02-04T10:31:39.780Z,96253.91
2023-02-04T10:34:13.446Z,96274.78
2023-02-04T10:36:42.786Z,96262.84
2023-02-04T10:39:14.460Z,96255.84
2023-02-04T10:41:52.864Z,96268.19
2023-02-04T10:44:28.422Z,96239.28
2023-02-04T10:47:17.186Z,96239.91
2023-02-04T10:49:55.429Z,96227.03
2023-02-04T10:52:30.532Z,96246.56
2023-02-04T10:54:58.502Z,96235.19
2023-02-04T10:57:30.143Z,96207.19
2023-02-04T11:00:00.550Z,96228.22
2023-02-04T11:02:32.642Z,96237.75
2023-02-04T11:05:00.044Z,96255.13
2023-02-04T11:07:27.880Z,96259.63
2023-02-04T11:09:54.848Z,96251.91
2023-02-04T11:12:38.371Z,96258.38
2023-02-04T11:15:06.121Z,96270.13
2023-02-04T11:17:34.861Z,96255.75
2023-02-04T11:20:16.394Z,96269.13
2023-02-04T11:22:46.542Z,96271.72
2023-02-04T11:25:34.449Z,96262.75
2023-02-04T11:28:13.468Z,96265.34
2023-02-04T11:30:40.293Z,96262.31
2023-02-04T11:33:23.219Z,96266.78
2023-02-04T11:36:05.907Z,96253.56
2023-02-04T11:38:33.385Z,96260.34
2023-02-04T11:41:01.221Z,96267.25
2023-02-04T11:43:30.467Z,96268.56
2023-02-04T11:46:18.524Z,96274.25
2023-02-04T11:48:45.395Z,96271.72
2023-02-04T11:51:15.403Z,96256.09
2023-02-04T11:53:42.688Z,96264.56
2023-02-04T11:56:22.784Z,96267.47
2023-02-04T11:58:50.888Z,96271.31
2023-02-04T12:01:25.939Z,96290.44
2023-02-04T12:04:02.609Z,96290.75
2023-02-04T12:06:33.771Z,96302.03
2023-02-04T12:09:16.330Z,96313.63
2023-02-04T12:11:58.018Z,96295.16
2023-02-04T12:14:35.028Z,96284.06
2023-02-04T12:17:02.362Z,96291.59
2023-02-04T12:19:29.356Z,96295.06
2023-02-04T12:21:56.172Z,96285.84
2023-02-04T12:24:23.121Z,96305.84
2023-02-04T12:26:49.955Z,96310.44
2023-02-04T12:29:16.690Z,96304.66
2023-02-04T12:31:43.637Z,96304.47
2023-02-04T12:34:10.532Z,96295.97
2023-02-04T12:36:37.384Z,96289.78
2023-02-04T12:39:04.146Z,96295.03
2023-02-04T12:41:30.939Z,96295.94
2023-02-04T12:43:58.656Z,96303.34
2023-02-04T12:46:25.668Z,96304.41
2023-02-04T12:48:53.225Z,96285.47
2023-02-04T12:51:21.153Z,96301.94
2023-02-04T12:53:48.963Z,96311.94
2023-02-04T12:56:16.067Z,96287.03
2023-02-04T12:58:43.268Z,96291.09
2023-02-04T13:01:10.329Z,96311.91
2023-02-04T13:03:37.096Z,96296.34
2023-02-04T13:06:04.173Z,96298.16
2023-02-04T13:08:30.863Z,96301.38
2023-02-04T13:10:57.640Z,96314.38
2023-02-04T13:13:24.736Z,96310.31
2023-02-04T13:15:51.522Z,96306.72
2023-02-04T13:18:18.720Z,96285.69
2023-02-04T13:20:46.236Z,96304.25
2023-02-04T13:23:13.828Z,96314.06
2023-02-04T13:25:40.933Z,96311.03
2023-02-04T13:28:07.728Z,96322.63
2023-02-04T13:30:34.595Z,96332.25
2023-02-04T13:33:01.542Z,96322.69
2023-02-04T13:35:28.815Z,96338.81
2023-02-04T13:37:56.578Z,96340.16
2023-02-04T13:40:23.647Z,96345.31
2023-02-04T13:42:50.597Z,96344.66
2023-02-04T13:45:19.067Z,96337.75
2023-02-04T13:47:48.201Z,96341.56
2023-02-04T13:50:17.518Z,96330.63
2023-02-04T13:52:44.461Z,96334.94
2023-02-04T13:55:11.177Z,96354.69
2023-02-04T13:57:38.029Z,96352.06
2023-02-04T14:00:09.101Z,96361.06
2023-02-04T14:02:43.000Z,96366.94
2023-02-04T14:05:09.892Z,96371.66
2023-02-04T14:07:36.729Z,96379.53
2023-02-04T14:10:04.621Z,96388.28
2023-02-04T14:12:31.345Z,96378.31
2023-02-04T14:14:58.083Z,96381.47
2023-02-04T14:17:25.759Z,96388.91
2023-02-04T14:19:52.738Z,96389.94
2023-02-04T14:22:19.641Z,96396.53
2023-02-04T14:24:47.677Z,96393.94
2023-02-04T14:27:16.222Z,96390.13
2023-02-04T14:29:43.087Z,96385.44
2023-02-04T14:32:10.013Z,96391.50
2023-02-04T14:34:36.804Z,96401.22
2023-02-04T14:37:03.912Z,96409.69
2023-02-04T14:39:30.744Z,96398.13
2023-02-04T14:41:57.792Z,96397.00
2023-02-04T14:44:24.656Z,96401.06
2023-02-04T14:46:51.857Z,96404.00
2023-02-04T14:49:18.976Z,96406.69
2023-02-04T14:51:45.986Z,96407.22
2023-02-04T14:54:13.715Z,96407.72
2023-02-04T14:56:41.021Z,96406.97
2023-02-04T14:59:08.261Z,96417.34
2023-02-04T15:01:35.080Z,96411.91
2023-02-04T15:04:01.888Z,96402.72
2023-02-04T15:06:28.779Z,96405.69
2023-02-04T15:08:57.302Z,96421.25
2023-02-04T15:11:24.404Z,96417.47
2023-02-04T15:13:51.210Z,96424.16
2023-02-04T15:16:18.214Z,96414.72
2023-02-04T15:18:45.110Z,96426.81
2023-02-04T15:21:11.865Z,96422.28
2023-02-04T15:23:38.698Z,96428.53
2023-02-04T15:26:05.506Z,96425.97
2023-02-04T15:28:32.374Z,96428.50
2023-02-04T15:30:59.420Z,96426.81
2023-02-04T15:33:26.733Z,96439.88
2023-02-04T15:35:53.532Z,96448.75
2023-02-04T15:38:20.217Z,96430.81
2023-02-04T15:40:47.097Z,96453.75
2023-02-04T15:43:13.946Z,96442.44
2023-02-04T15:45:43.872Z,96449.25
2023-02-04T15:48:11.714Z,96446.25
2023-02-04T15:50:39.503Z,96451.44
2023-02-04T15:53:06.839Z,96455.69
2023-02-04T15:55:34.510Z,96458.94
2023-02-04T15:58:01.799Z,96462.53
2023-02-04T16:00:28.610Z,96463.19
2023-02-04T16:02:55.488Z,96470.75
2023-02-04T16:05:22.534Z,96466.28
2023-02-04T16:07:50.066Z,96464.22
2023-02-04T16:10:18.661Z,96453.00
2023-02-04T16:12:47.434Z,96464.06
2023-02-04T16:15:14.737Z,96469.94
2023-02-04T16:17:42.103Z,96475.63
2023-02-04T16:20:10.101Z,96460.59
2023-02-04T16:22:37.330Z,96450.50
2023-02-04T16:25:07.231Z,96471.38
2023-02-04T16:27:34.178Z,96450.56
2023-02-04T16:30:01.927Z,96460.94
2023-02-04T16:32:29.191Z,96464.69
2023-02-04T16:34:56.898Z,96469.03
2023-02-04T16:37:24.014Z,96477.63
2023-02-04T16:39:52.193Z,96467.44
2023-02-04T16:42:19.756Z,96474.09
2023-02-04T16:44:46.831Z,96497.31
2023-02-04T16:47:13.526Z,96484.84
2023-02-04T16:49:40.588Z,96476.59
2023-02-04T16:52:08.102Z,96486.81
2023-02-04T16:54:35.562Z,96501.88
2023-02-04T16:57:04.046Z,96509.00
2023-02-04T16:59:32.235Z,96495.34
2023-02-04T17:02:00.826Z,96478.03
2023-02-04T17:04:28.755Z,96470.94
2023-02-04T17:06:56.669Z,96489.25
2023-02-04T17:09:23.586Z,96481.22
2023-02-04T17:11:51.166Z,96475.34
2023-02-04T17:14:19.224Z,96478.97
2023-02-04T17:16:47.802Z,96508.28
2023-02-04T17:19:17.567Z,96518.06
2023-02-04T17:21:45.041Z,96524.81
2023-02-04T17:24:12.854Z,96513.16
2023-02-04T17:26:40.687Z,96493.78
2023-02-04T17:29:10.213Z,96512.56
2023-02-04T17:31:37.756Z,96540.22
2023-02-04T17:34:05.649Z,96546.19
2023-02-04T17:36:32.567Z,96528.78
2023-02-04T17:38:59.283Z,96515.91
2023-02-04T17:41:26.392Z,96532.84
2023-02-04T17:43:53.969Z,96533.56
2023-02-04T17:46:21.297Z,96508.22
2023-02-04T17:48:48.048Z,96518.22
2023-02-04T17:51:14.878Z,96511.22
2023-02-04T17:53:42.095Z,96505.56
2023-02-04T17:56:14.212Z,96525.69
2023-02-04T17:58:42.156Z,96522.03
2023-02-04T18:01:18.735Z,96530.66
2023-02-04T18:03:48.698Z,96512.63
2023-02-04T18:06:24.606Z,96517.53
2023-02-04T18:08:52.777Z,96537.91
2023-02-04T18:11:27.894Z,96526.13
2023-02-04T18:14:02.281Z,96518.22
2023-02-04T18:16:31.522Z,96521.56
2023-02-04T18:19:16.821Z,96532.00
2023-02-04T18:21:44.281Z,96514.75
2023-02-04T18:24:11.304Z,96521.38
2023-02-04T18:26:44.717Z,96514.94
2023-02-04T18:29:19.193Z,96509.16
2023-02-04T18:31:52.281Z,96527.84
2023-02-04T18:34:27.364Z,96518.25
2023-02-04T18:36:55.335Z,96533.47
2023-02-04T18:39:28.840Z,96521.69
2023-02-04T18:41:56.330Z,96518.25
2023-02-04T18:44:33.812Z,96520.28
2023-02-04T18:47:05.273Z,96521.28
2023-02-04T18:49:39.673Z,96527.81
2023-02-04T18:52:20.365Z,96526.31
2023-02-04T18:54:51.616Z,96530.91
2023-02-04T18:57:38.364Z,96547.56
2023-02-04T19:00:11.561Z,96528.25
2023-02-04T19:02:46.574Z,96528.13
2023-02-04T19:05:23.519Z,96540.75
2023-02-04T19:07:51.447Z,96549.91
2023-02-04T19:10:28.065Z,96550.19
2023-02-04T19:13:10.642Z,96552.06
2023-02-04T19:15:39.752Z,96549.59
2023-02-04T19:18:27.147Z,96560.63
2023-02-04T19:20:54.412Z,96563.38
2023-02-04T19:23:23.848Z,96549.06
2023-02-04T19:25:52.346Z,96553.00
2023-02-04T19:28:37.545Z,96564.47
2023-02-04T19:31:08.205Z,96555.78
2023-02-04T19:33:34.838Z,96557.16
2023-02-04T19:36:27.915Z,96559.94
2023-02-04T19:39:03.444Z,96565.06
2023-02-04T19:41:42.285Z,96562.28
2023-02-04T19:44:27.345Z,96559.09
2023-02-04T19:46:54.366Z,96558.22
2023-02-04T19:49:28.669Z,96549.13
2023-02-04T19:51:58.129Z,96549.72
2023-02-04T19:54:45.115Z,96554.03
2023-02-04T19:57:35.967Z,96567.66
2023-02-04T20:00:02.750Z,96563.34
2023-02-04T20:02:39.875Z,96555.94
2023-02-04T20:05:18.770Z,96562.78
2023-02-04T20:07:45.673Z,96572.78
2023-02-04T20:10:25.668Z,96571.50
2023-02-04T20:12:59.324Z,96565.16
2023-02-04T20:15:26.489Z,96576.50
2023-02-04T20:17:53.723Z,96587.19
2023-02-04T20:20:29.991Z,96583.41
2023-02-04T20:23:01.864Z,96588.91
2023-02-04T20:25:45.063Z,96585.59
2023-02-04T20:28:18.041Z,96583.56
2023-02-04T20:30:46.291Z,96574.31
2023-02-04T20:33:34.861Z,96581.81
2023-02-04T20:36:26.268Z,96571.00
2023-02-04T20:39:16.044Z,96578.22
2023-02-04T20:41:43.197Z,96584.22
2023-02-04T20:44:17.880Z,96579.78
2023-02-04T20:46:44.932Z,96583.66
2023-02-04T20:49:25.861Z,96586.97
2023-02-04T20:52:00.185Z,96602.50
2023-02-04T20:54:30.535Z,96601.91
2023-02-04T20:57:15.628Z,96602.06
2023-02-04T20:59:42.976Z,96587.47
2023-02-04T21:02:21.945Z,96588.16
2023-02-04T21:04:53.863Z,96590.41
2023-02-04T21:07:23.235Z,96591.00
2023-02-04T21:09:52.087Z,96590.94
2023-02-04T21:12:20.533Z,96592.31
2023-02-04T21:14:47.419Z,96591.91
2023-02-04T21:17:14.234Z,96597.63
2023-02-04T21:19:41.002Z,96600.22
2023-02-04T21:22:08.621Z,96604.06
2023-02-04T21:24:35.336Z,96597.66
2023-02-04T21:27:02.339Z,96605.13
2023-02-04T21:29:29.310Z,96599.53
2023-02-04T21:31:56.250Z,96601.41
2023-02-04T21:34:23.591Z,96609.88
2023-02-04T21:36:50.257Z,96601.78
2023-02-04T21:39:17.179Z,96606.97
2023-02-04T21:41:43.877Z,96607.56
2023-02-04T21:44:10.992Z,96610.19
2023-02-04T21:46:38.223Z,96612.72
2023-02-04T21:49:05.426Z,96609.53
2023-02-04T21:51:32.248Z,96615.19
2023-02-04T21:54:00.056Z,96616.84
2023-02-04T21:56:26.898Z,96620.78
2023-02-04T21:58:54.354Z,96622.03
2023-02-04T22:01:21.179Z,96611.72
2023-02-04T22:03:47.981Z,96628.84
2023-02-04T22:06:14.832Z,96640.28
2023-02-04T22:08:41.574Z,96634.63
2023-02-04T22:11:08.628Z,96637.88
2023-02-04T22:13:35.326Z,96652.94
2023-02-04T22:16:02.114Z,96652.97
2023-02-04T22:18:29.038Z,96651.81
2023-02-04T22:20:55.960Z,96646.59
2023-02-04T22:23:22.676Z,96641.47
2023-02-04T22:25:49.401Z,96645.00
2023-02-04T22:28:16.238Z,96640.72
2023-02-04T22:30:43.086Z,96643.97
2023-02-04T22:33:11.440Z,96646.41
2023-02-04T22:35:38.560Z,96640.72
2023-02-04T22:38:05.537Z,96652.19
2023-02-04T22:40:32.241Z,96642.84
2023-02-04T22:42:59.983Z,96649.28
2023-02-04T22:45:26.710Z,96653.59
2023-02-04T22:47:53.868Z,96634.28
2023-02-04T22:50:20.673Z,96642.06
2023-02-04T22:52:47.411Z,96635.50
2023-02-04T22:55:14.337Z,96633.50
2023-02-04T22:57:41.048Z,96635.66
2023-02-04T23:00:09.738Z,96635.28
2023-02-04T23:02:36.525Z,96618.09
2023-02-04T23:05:04.258Z,96599.94
2023-02-04T23:07:31.965Z,96606.13
2023-02-04T23:09:59.169Z,96604.69
2023-02-04T23:12:25.975Z,96617.59
2023-02-04T23:14:53.027Z,96596.16
2023-02-04T23:17:19.881Z,96599.97
2023-02-04T23:19:46.792Z,96602.38
2023-02-04T23:22:14.572Z,96609.66
2023-02-04T23:24:42.484Z,96624.13
2023-02-04T23:27:11.411Z,96623.53
2023-02-04T23:29:39.699Z,96630.50
2023-02-04T23:32:07.145Z,96618.72
2023-02-04T23:34:34.590Z,96622.25
2023-02-04T23:37:01.573Z,96607.75
2023-02-04T23:39:28.799Z,96607.09
2023-02-04T23:41:55.722Z,96595.66
2023-02-04T23:44:22.964Z,96607.41
2023-02-04T23:46:50.190Z,96621.25
2023-02-04T23:49:17.061Z,96621.44
2023-02-04T23:51:44.445Z,96610.66
2023-02-04T23:54:11.328Z,96618.22
2023-02-04T23:56:38.479Z,96624.38
2023-02-04T23:59:06.106Z,96619.97
